sensor_id;sensor_type;location;lat;lon;timestamp;pressure;altitude;pressure_sealevel;temperature;humidity
61324;BME280;47203;48.428;11.974;2024-02-14T00:00:55;97260.56;;;8.73;43.11
61324;BME280;47203;48.428;11.974;2024-02-14T00:02:58;97260.25;;;8.69;42.93
61324;BME280;47203;48.428;11.974;2024-02-14T00:05:02;97263.91;;;8.68;43.07
61324;BME280;47203;48.428;11.974;2024-02-14T00:07:05;97258.34;;;8.65;43.15
61324;BME280;47203;48.428;11.974;2024-02-14T00:09:08;97259.84;;;8.61;43.13
61324;BME280;47203;48.428;11.974;2024-02-14T00:11:13;97261.94;;;8.59;43.20
61324;BME280;47203;48.428;11.974;2024-02-14T00:13:17;97263.19;;;8.56;43.22
61324;BME280;47203;48.428;11.974;2024-02-14T00:15:22;97261.84;;;8.53;43.24
61324;BME280;47203;48.428;11.974;2024-02-14T00:17:27;97259.44;;;8.52;43.24
61324;BME280;47203;48.428;11.974;2024-02-14T00:19:31;97261.72;;;8.48;43.21
61324;BME280;47203;48.428;11.974;2024-02-14T00:21:34;97259.34;;;8.47;43.23
61324;BME280;47203;48.428;11.974;2024-02-14T00:23:38;97266.44;;;8.46;43.40
61324;BME280;47203;48.428;11.974;2024-02-14T00:25:42;97266.44;;;8.46;43.38
61324;BME280;47203;48.428;11.974;2024-02-14T00:27:45;97262.66;;;8.42;43.51
61324;BME280;47203;48.428;11.974;2024-02-14T00:29:49;97264.06;;;8.45;43.37
61324;BME280;47203;48.428;11.974;2024-02-14T00:31:54;97265.03;;;8.44;43.50
61324;BME280;47203;48.428;11.974;2024-02-14T00:33:57;97269.75;;;8.42;43.33
61324;BME280;47203;48.428;11.974;2024-02-14T00:36:01;97266.78;;;8.38;43.33
61324;BME280;47203;48.428;11.974;2024-02-14T00:38:05;97266.22;;;8.36;43.35
61324;BME280;47203;48.428;11.974;2024-02-14T00:40:10;97275.94;;;8.35;43.48
61324;BME280;47203;48.428;11.974;2024-02-14T00:42:13;97270.69;;;8.35;43.42
61324;BME280;47203;48.428;11.974;2024-02-14T00:44:17;97277.50;;;8.36;43.43
61324;BME280;47203;48.428;11.974;2024-02-14T00:46:20;97274.66;;;8.38;43.54
61324;BME280;47203;48.428;11.974;2024-02-14T00:48:25;97269.88;;;8.35;43.45
61324;BME280;47203;48.428;11.974;2024-02-14T00:50:29;97268.06;;;8.35;43.49
61324;BME280;47203;48.428;11.974;2024-02-14T00:52:33;97267.25;;;8.35;43.50
61324;BME280;47203;48.428;11.974;2024-02-14T00:54:36;97269.63;;;8.36;43.72
61324;BME280;47203;48.428;11.974;2024-02-14T00:56:40;97269.63;;;8.36;43.68
61324;BME280;47203;48.428;11.974;2024-02-14T00:58:43;97269.88;;;8.35;43.70
61324;BME280;47203;48.428;11.974;2024-02-14T01:00:47;97277.19;;;8.33;43.83
61324;BME280;47203;48.428;11.974;2024-02-14T01:02:51;97278.22;;;8.32;43.65
61324;BME280;47203;48.428;11.974;2024-02-14T01:04:56;97276.63;;;8.31;43.82
61324;BME280;47203;48.428;11.974;2024-02-14T01:07:00;97279.81;;;8.33;43.89
61324;BME280;47203;48.428;11.974;2024-02-14T01:09:03;97282.19;;;8.34;43.71
61324;BME280;47203;48.428;11.974;2024-02-14T01:11:06;97274.88;;;8.36;43.78
61324;BME280;47203;48.428;11.974;2024-02-14T01:13:10;97282.50;;;8.38;43.82
61324;BME280;47203;48.428;11.974;2024-02-14T01:15:14;97277.03;;;8.39;43.85
61324;BME280;47203;48.428;11.974;2024-02-14T01:17:18;97279.22;;;8.43;43.85
61324;BME280;47203;48.428;11.974;2024-02-14T01:19:22;97278.16;;;8.44;43.81
61324;BME280;47203;48.428;11.974;2024-02-14T01:21:27;97280.00;;;8.43;43.88
61324;BME280;47203;48.428;11.974;2024-02-14T01:23:31;97279.00;;;8.44;43.78
61324;BME280;47203;48.428;11.974;2024-02-14T01:25:33;97274.75;;;8.43;43.70
61324;BME280;47203;48.428;11.974;2024-02-14T01:27:39;97281.84;;;8.43;43.69
61324;BME280;47203;48.428;11.974;2024-02-14T01:29:43;97278.09;;;8.38;43.50
61324;BME280;47203;48.428;11.974;2024-02-14T01:31:46;97276.72;;;8.36;44.02
61324;BME280;47203;48.428;11.974;2024-02-14T01:33:51;97279.81;;;8.33;43.92
61324;BME280;47203;48.428;11.974;2024-02-14T01:35:57;97282.09;;;8.29;44.10
61324;BME280;47203;48.428;11.974;2024-02-14T01:38:02;97282.09;;;8.29;43.93
61324;BME280;47203;48.428;11.974;2024-02-14T01:40:08;97281.88;;;8.31;44.08
61324;BME280;47203;48.428;11.974;2024-02-14T01:42:11;97280.59;;;8.33;44.08
61324;BME280;47203;48.428;11.974;2024-02-14T01:44:15;97286.44;;;8.35;43.96
61324;BME280;47203;48.428;11.974;2024-02-14T01:46:19;97279.09;;;8.37;43.97
61324;BME280;47203;48.428;11.974;2024-02-14T01:48:22;97289.13;;;8.41;43.96
61324;BME280;47203;48.428;11.974;2024-02-14T01:50:26;97282.84;;;8.42;44.06
61324;BME280;47203;48.428;11.974;2024-02-14T01:52:32;97279.22;;;8.43;43.94
61324;BME280;47203;48.428;11.974;2024-02-14T01:54:37;97277.38;;;8.43;44.12
61324;BME280;47203;48.428;11.974;2024-02-14T01:56:40;97278.75;;;8.46;44.03
61324;BME280;47203;48.428;11.974;2024-02-14T01:58:44;97276.94;;;8.46;44.06
61324;BME280;47203;48.428;11.974;2024-02-14T02:00:47;97280.56;;;8.45;43.99
61324;BME280;47203;48.428;11.974;2024-02-14T02:02:51;97280.34;;;8.47;44.05
61324;BME280;47203;48.428;11.974;2024-02-14T02:04:56;97274.06;;;8.48;44.09
61324;BME280;47203;48.428;11.974;2024-02-14T02:07:00;97268.59;;;8.49;44.09
61324;BME280;47203;48.428;11.974;2024-02-14T02:09:03;97277.81;;;8.52;44.08
61324;BME280;47203;48.428;11.974;2024-02-14T02:11:09;97277.81;;;8.52;44.17
61324;BME280;47203;48.428;11.974;2024-02-14T02:13:12;97277.34;;;8.55;44.06
61324;BME280;47203;48.428;11.974;2024-02-14T02:15:18;97283.38;;;8.55;44.11
61324;BME280;47203;48.428;11.974;2024-02-14T02:17:21;97277.09;;;8.56;44.15
61324;BME280;47203;48.428;11.974;2024-02-14T02:19:24;97271.84;;;8.56;44.17
61324;BME280;47203;48.428;11.974;2024-02-14T02:21:28;97280.06;;;8.60;44.29
61324;BME280;47203;48.428;11.974;2024-02-14T02:23:33;97278.47;;;8.59;44.21
61324;BME280;47203;48.428;11.974;2024-02-14T02:25:37;97277.69;;;8.59;44.12
61324;BME280;47203;48.428;11.974;2024-02-14T02:27:39;97280.06;;;8.60;44.14
61324;BME280;47203;48.428;11.974;2024-02-14T02:29:43;97270.34;;;8.61;44.12
61324;BME280;47203;48.428;11.974;2024-02-14T02:31:50;97268.75;;;8.60;44.30
61324;BME280;47203;48.428;11.974;2024-02-14T02:33:54;97279.81;;;8.62;44.21
61324;BME280;47203;48.428;11.974;2024-02-14T02:35:58;97268.75;;;8.60;44.27
61324;BME280;47203;48.428;11.974;2024-02-14T02:38:02;97271.13;;;8.61;44.31
61324;BME280;47203;48.428;11.974;2024-02-14T02:40:07;97281.09;;;8.59;44.28
61324;BME280;47203;48.428;11.974;2024-02-14T02:42:13;97270.09;;;8.62;44.17
61324;BME280;47203;48.428;11.974;2024-02-14T02:44:16;97275.13;;;8.64;44.33
61324;BME280;47203;48.428;11.974;2024-02-14T02:46:20;97283.00;;;8.64;44.20
61324;BME280;47203;48.428;11.974;2024-02-14T02:48:24;97276.47;;;8.66;44.51
61324;BME280;47203;48.428;11.974;2024-02-14T02:50:28;97284.34;;;8.66;44.26
61324;BME280;47203;48.428;11.974;2024-02-14T02:52:32;97285.13;;;8.67;44.26
61324;BME280;47203;48.428;11.974;2024-02-14T02:54:35;97289.38;;;8.68;44.30
61324;BME280;47203;48.428;11.974;2024-02-14T02:56:40;97277.25;;;8.67;44.07
61324;BME280;47203;48.428;11.974;2024-02-14T02:58:44;97281.72;;;8.66;44.31
61324;BME280;47203;48.428;11.974;2024-02-14T03:00:47;97284.34;;;8.66;44.28
61324;BME280;47203;48.428;11.974;2024-02-14T03:02:52;97285.13;;;8.67;44.27
61324;BME280;47203;48.428;11.974;2024-02-14T03:04:55;97286.97;;;8.66;44.24
61324;BME280;47203;48.428;11.974;2024-02-14T03:07:02;97284.59;;;8.65;44.37
61324;BME280;47203;48.428;11.974;2024-02-14T03:09:10;97285.63;;;8.64;44.32
61324;BME280;47203;48.428;11.974;2024-02-14T03:11:15;97284.25;;;8.61;44.34
61324;BME280;47203;48.428;11.974;2024-02-14T03:13:20;97288.72;;;8.61;44.32
61324;BME280;47203;48.428;11.974;2024-02-14T03:15:24;97285.31;;;8.60;44.35
61324;BME280;47203;48.428;11.974;2024-02-14T03:17:28;97286.88;;;8.61;44.35
61324;BME280;47203;48.428;11.974;2024-02-14T03:19:31;97280.84;;;8.61;44.41
61324;BME280;47203;48.428;11.974;2024-02-14T03:21:40;97285.84;;;8.62;44.41
61324;BME280;47203;48.428;11.974;2024-02-14T03:23:45;97277.97;;;8.62;44.33
61324;BME280;47203;48.428;11.974;2024-02-14T03:25:49;97281.38;;;8.63;44.28
61324;BME280;47203;48.428;11.974;2024-02-14T03:27:51;97278.22;;;8.61;44.33
61324;BME280;47203;48.428;11.974;2024-02-14T03:29:57;97277.44;;;8.60;44.25
61324;BME280;47203;48.428;11.974;2024-02-14T03:32:01;97275.59;;;8.61;44.29
61324;BME280;47203;48.428;11.974;2024-02-14T03:34:07;97287.13;;;8.60;44.30
61324;BME280;47203;48.428;11.974;2024-02-14T03:36:10;97279.47;;;8.58;44.20
61324;BME280;47203;48.428;11.974;2024-02-14T03:38:24;97284.41;;;8.54;44.33
61324;BME280;47203;48.428;11.974;2024-02-14T03:40:28;97289.66;;;8.54;44.22
61324;BME280;47203;48.428;11.974;2024-02-14T03:42:32;97286.72;;;8.51;44.21
61324;BME280;47203;48.428;11.974;2024-02-14T03:44:36;97285.34;;;8.48;44.38
61324;BME280;47203;48.428;11.974;2024-02-14T03:46:43;97286.03;;;8.44;44.43
61324;BME280;47203;48.428;11.974;2024-02-14T03:48:46;97289.69;;;8.43;44.43
61324;BME280;47203;48.428;11.974;2024-02-14T03:50:51;97290.72;;;8.42;44.24
61324;BME280;47203;48.428;11.974;2024-02-14T03:52:54;97287.53;;;8.39;44.28
61324;BME280;47203;48.428;11.974;2024-02-14T03:54:58;97281.72;;;8.37;44.29
61324;BME280;47203;48.428;11.974;2024-02-14T03:57:00;97288.47;;;8.33;44.28
61324;BME280;47203;48.428;11.974;2024-02-14T03:59:04;97286.09;;;8.32;44.46
61324;BME280;47203;48.428;11.974;2024-02-14T04:01:09;97286.56;;;8.29;44.46
61324;BME280;47203;48.428;11.974;2024-02-14T04:03:15;97280.75;;;8.27;44.40
61324;BME280;47203;48.428;11.974;2024-02-14T04:05:18;97287.03;;;8.26;44.38
61324;BME280;47203;48.428;11.974;2024-02-14T04:07:22;97292.50;;;8.24;44.39
61324;BME280;47203;48.428;11.974;2024-02-14T04:09:26;97282.50;;;8.21;44.47
61324;BME280;47203;48.428;11.974;2024-02-14T04:11:30;97285.34;;;8.19;44.50
61324;BME280;47203;48.428;11.974;2024-02-14T04:13:32;97287.16;;;8.19;44.42
61324;BME280;47203;48.428;11.974;2024-02-14T04:15:36;97287.97;;;8.19;44.50
61324;BME280;47203;48.428;11.974;2024-02-14T04:17:39;97287.41;;;8.17;44.53
61324;BME280;47203;48.428;11.974;2024-02-14T04:19:44;97284.00;;;8.17;44.49
61324;BME280;47203;48.428;11.974;2024-02-14T04:21:48;97276.13;;;8.17;44.40
61324;BME280;47203;48.428;11.974;2024-02-14T04:23:52;97277.97;;;8.16;44.52
61324;BME280;47203;48.428;11.974;2024-02-14T04:25:55;97278.19;;;8.15;44.33
61324;BME280;47203;48.428;11.974;2024-02-14T04:28:00;97269.75;;;8.13;44.46
61324;BME280;47203;48.428;11.974;2024-02-14T04:30:05;97269.19;;;8.11;44.59
61324;BME280;47203;48.428;11.974;2024-02-14T04:32:09;97266.34;;;8.12;44.66
61324;BME280;47203;48.428;11.974;2024-02-14T04:34:12;97270.78;;;8.12;44.65
61324;BME280;47203;48.428;11.974;2024-02-14T04:36:17;97270.00;;;8.11;44.58
61324;BME280;47203;48.428;11.974;2024-02-14T04:38:21;97265.53;;;8.12;44.60
61324;BME280;47203;48.428;11.974;2024-02-14T04:40:25;97269.19;;;8.11;44.57
61324;BME280;47203;48.428;11.974;2024-02-14T04:42:28;97271.25;;;8.09;44.51
61324;BME280;47203;48.428;11.974;2024-02-14T04:44:33;97273.31;;;8.07;44.55
61324;BME280;47203;48.428;11.974;2024-02-14T04:46:38;97268.06;;;8.07;44.60
61324;BME280;47203;48.428;11.974;2024-02-14T04:48:45;97263.84;;;8.06;44.95
61324;BME280;47203;48.428;11.974;2024-02-14T04:50:49;97269.09;;;8.06;44.75
61324;BME280;47203;48.428;11.974;2024-02-14T04:52:53;97267.53;;;8.04;44.69
61324;BME280;47203;48.428;11.974;2024-02-14T04:54:56;97269.91;;;8.06;44.79
61324;BME280;47203;48.428;11.974;2024-02-14T04:57:00;97274.09;;;8.07;44.82
61324;BME280;47203;48.428;11.974;2024-02-14T04:59:04;97280.16;;;8.08;44.83
61324;BME280;47203;48.428;11.974;2024-02-14T05:01:10;97277.31;;;8.09;44.84
61324;BME280;47203;48.428;11.974;2024-02-14T05:03:14;97276.25;;;8.10;44.91
61324;BME280;47203;48.428;11.974;2024-02-14T05:05:18;97271.81;;;8.11;44.83
61324;BME280;47203;48.428;11.974;2024-02-14T05:07:21;97268.97;;;8.12;44.82
61324;BME280;47203;48.428;11.974;2024-02-14T05:09:26;97282.31;;;8.11;44.69
61324;BME280;47203;48.428;11.974;2024-02-14T05:11:31;97278.63;;;8.12;44.71
61324;BME280;47203;48.428;11.974;2024-02-14T05:13:34;97278.44;;;8.13;44.87
61324;BME280;47203;48.428;11.974;2024-02-14T05:15:39;97278.97;;;8.15;44.97
61324;BME280;47203;48.428;11.974;2024-02-14T05:17:43;97285.59;;;8.18;44.89
61324;BME280;47203;48.428;11.974;2024-02-14T05:19:47;97280.66;;;8.21;44.86
61324;BME280;47203;48.428;11.974;2024-02-14T05:21:51;97283.63;;;8.25;44.87
61324;BME280;47203;48.428;11.974;2024-02-14T05:23:54;97283.69;;;8.30;44.85
61324;BME280;47203;48.428;11.974;2024-02-14T05:25:59;97278.78;;;8.34;44.72
61324;BME280;47203;48.428;11.974;2024-02-14T05:28:04;97278.31;;;8.37;44.65
61324;BME280;47203;48.428;11.974;2024-02-14T05:30:08;97287.09;;;8.43;44.74
61324;BME280;47203;48.428;11.974;2024-02-14T05:32:12;97282.97;;;8.47;44.59
61324;BME280;47203;48.428;11.974;2024-02-14T05:34:16;97279.06;;;8.49;44.63
61324;BME280;47203;48.428;11.974;2024-02-14T05:36:18;97287.03;;;8.54;44.64
61324;BME280;47203;48.428;11.974;2024-02-14T05:38:22;97284.50;;;8.60;44.62
61324;BME280;47203;48.428;11.974;2024-02-14T05:40:25;97283.53;;;8.66;44.42
61324;BME280;47203;48.428;11.974;2024-02-14T05:42:30;97281.50;;;8.68;44.23
61324;BME280;47203;48.428;11.974;2024-02-14T05:44:33;97277.91;;;8.74;44.31
61324;BME280;47203;48.428;11.974;2024-02-14T05:46:37;97287.94;;;8.77;44.24
61324;BME280;47203;48.428;11.974;2024-02-14T05:48:40;97275.91;;;8.81;44.28
61324;BME280;47203;48.428;11.974;2024-02-14T05:50:44;97279.09;;;8.83;44.27
61324;BME280;47203;48.428;11.974;2024-02-14T05:52:48;97269.41;;;8.84;44.12
61324;BME280;47203;48.428;11.974;2024-02-14T05:54:51;97280.69;;;8.84;44.26
61324;BME280;47203;48.428;11.974;2024-02-14T05:56:56;97269.94;;;8.86;44.10
61324;BME280;47203;48.428;11.974;2024-02-14T05:59:01;97272.34;;;8.87;43.99
61324;BME280;47203;48.428;11.974;2024-02-14T06:01:05;97275.53;;;8.89;44.03
61324;BME280;47203;48.428;11.974;2024-02-14T06:03:08;97271.31;;;8.88;43.99
61324;BME280;47203;48.428;11.974;2024-02-14T06:05:12;97285.22;;;8.89;43.93
61324;BME280;47203;48.428;11.974;2024-02-14T06:07:16;97280.22;;;8.87;43.96
61324;BME280;47203;48.428;11.974;2024-02-14T06:09:19;97285.69;;;8.86;43.81
61324;BME280;47203;48.428;11.974;2024-02-14T06:11:23;97287.78;;;8.84;43.94
61324;BME280;47203;48.428;11.974;2024-02-14T06:13:26;97292.47;;;8.82;44.01
61324;BME280;47203;48.428;11.974;2024-02-14T06:15:31;97292.69;;;8.80;44.03
61324;BME280;47203;48.428;11.974;2024-02-14T06:17:34;97301.38;;;8.81;43.88
61324;BME280;47203;48.428;11.974;2024-02-14T06:19:38;97302.16;;;8.81;44.10
61324;BME280;47203;48.428;11.974;2024-02-14T06:21:42;97299.78;;;8.80;44.07
61324;BME280;47203;48.428;11.974;2024-02-14T06:23:45;97302.41;;;8.80;44.07
61324;BME280;47203;48.428;11.974;2024-02-14T06:25:49;97300.81;;;8.79;43.98
61324;BME280;47203;48.428;11.974;2024-02-14T06:27:53;97304.50;;;8.78;44.07
61324;BME280;47203;48.428;11.974;2024-02-14T06:29:56;97305.50;;;8.77;44.09
61324;BME280;47203;48.428;11.974;2024-02-14T06:32:03;97309.16;;;8.76;44.20
61324;BME280;47203;48.428;11.974;2024-02-14T06:34:07;97311.31;;;8.79;44.18
61324;BME280;47203;48.428;11.974;2024-02-14T06:36:10;97321.34;;;8.82;44.12
61324;BME280;47203;48.428;11.974;2024-02-14T06:38:14;97318.25;;;8.85;44.13
61324;BME280;47203;48.428;11.974;2024-02-14T06:40:18;97326.91;;;8.85;44.09
61324;BME280;47203;48.428;11.974;2024-02-14T06:42:22;97329.31;;;8.87;44.10
61324;BME280;47203;48.428;11.974;2024-02-14T06:44:25;97335.09;;;8.89;44.01
61324;BME280;47203;48.428;11.974;2024-02-14T06:46:29;97336.69;;;8.90;44.07
61324;BME280;47203;48.428;11.974;2024-02-14T06:48:34;97335.44;;;8.93;44.06
61324;BME280;47203;48.428;11.974;2024-02-14T06:50:42;97335.19;;;8.94;43.90
61324;BME280;47203;48.428;11.974;2024-02-14T06:52:45;97333.69;;;8.98;44.01
61324;BME280;47203;48.428;11.974;2024-02-14T06:54:49;97339.50;;;9.00;43.96
61324;BME280;47203;48.428;11.974;2024-02-14T06:56:52;97326.69;;;9.04;43.94
61324;BME280;47203;48.428;11.974;2024-02-14T06:58:55;97335.34;;;9.04;44.01
61324;BME280;47203;48.428;11.974;2024-02-14T07:01:02;97335.66;;;9.08;43.88
61324;BME280;47203;48.428;11.974;2024-02-14T07:03:06;97336.00;;;9.12;43.86
61324;BME280;47203;48.428;11.974;2024-02-14T07:05:12;97327.31;;;9.11;43.93
61324;BME280;47203;48.428;11.974;2024-02-14T07:07:16;97332.88;;;9.15;43.89
61324;BME280;47203;48.428;11.974;2024-02-14T07:09:20;97337.41;;;9.19;43.77
61324;BME280;47203;48.428;11.974;2024-02-14T07:11:23;97336.69;;;9.24;43.89
61324;BME280;47203;48.428;11.974;2024-02-14T07:13:27;97325.94;;;9.25;43.81
61324;BME280;47203;48.428;11.974;2024-02-14T07:15:32;97328.34;;;9.27;43.65
61324;BME280;47203;48.428;11.974;2024-02-14T07:17:36;97337.56;;;9.30;43.78
61324;BME280;47203;48.428;11.974;2024-02-14T07:19:40;97336.31;;;9.32;43.70
61324;BME280;47203;48.428;11.974;2024-02-14T07:21:47;97339.22;;;9.36;43.68
61324;BME280;47203;48.428;11.974;2024-02-14T07:23:50;97333.81;;;9.42;43.76
61324;BME280;47203;48.428;11.974;2024-02-14T07:25:56;97341.53;;;9.49;43.74
61324;BME280;47203;48.428;11.974;2024-02-14T07:27:59;97340.56;;;9.55;43.63
61324;BME280;47203;48.428;11.974;2024-02-14T07:30:05;97345.34;;;9.58;43.54
61324;BME280;47203;48.428;11.974;2024-02-14T07:32:09;97357.50;;;9.65;43.46
61324;BME280;47203;48.428;11.974;2024-02-14T07:34:12;97359.66;;;9.68;43.47
61324;BME280;47203;48.428;11.974;2024-02-14T07:36:16;97375.66;;;9.66;43.60
61324;BME280;47203;48.428;11.974;2024-02-14T07:38:21;97371.22;;;9.67;43.68
61324;BME280;47203;48.428;11.974;2024-02-14T07:40:25;97380.44;;;9.69;43.67
61324;BME280;47203;48.428;11.974;2024-02-14T07:42:29;97384.66;;;9.70;43.74
61324;BME280;47203;48.428;11.974;2024-02-14T07:44:33;97382.81;;;9.71;43.69
61324;BME280;47203;48.428;11.974;2024-02-14T07:46:38;97389.19;;;9.75;43.69
61324;BME280;47203;48.428;11.974;2024-02-14T07:48:41;97387.13;;;9.77;43.73
61324;BME280;47203;48.428;11.974;2024-02-14T07:50:45;97375.56;;;9.78;43.84
61324;BME280;47203;48.428;11.974;2024-02-14T07:52:48;97382.19;;;9.81;43.75
61324;BME280;47203;48.428;11.974;2024-02-14T07:54:53;97383.53;;;9.83;43.72
61324;BME280;47203;48.428;11.974;2024-02-14T07:56:57;97378.56;;;9.87;43.69
61324;BME280;47203;48.428;11.974;2024-02-14T07:59:00;97380.72;;;9.90;43.78
61324;BME280;47203;48.428;11.974;2024-02-14T08:01:04;97370.50;;;9.93;43.83
61324;BME280;47203;48.428;11.974;2024-02-14T08:03:08;97376.41;;;10.01;43.70
61324;BME280;47203;48.428;11.974;2024-02-14T08:05:11;97379.88;;;10.06;43.74
61324;BME280;47203;48.428;11.974;2024-02-14T08:07:15;97374.69;;;10.11;43.76
61324;BME280;47203;48.428;11.974;2024-02-14T08:09:19;97386.06;;;10.17;43.66
61324;BME280;47203;48.428;11.974;2024-02-14T08:11:23;97389.00;;;10.21;43.56
61324;BME280;47203;48.428;11.974;2024-02-14T08:13:26;97382.75;;;10.27;43.43
61324;BME280;47203;48.428;11.974;2024-02-14T08:15:30;97388.31;;;10.30;43.54
61324;BME280;47203;48.428;11.974;2024-02-14T08:17:35;97387.59;;;10.35;43.33
61324;BME280;47203;48.428;11.974;2024-02-14T08:19:39;97385.59;;;10.42;43.34
61324;BME280;47203;48.428;11.974;2024-02-14T08:21:43;97385.66;;;10.47;43.26
61324;BME280;47203;48.428;11.974;2024-02-14T08:23:46;97384.41;;;10.55;43.30
61324;BME280;47203;48.428;11.974;2024-02-14T08:25:49;97375.75;;;10.60;43.21
61324;BME280;47203;48.428;11.974;2024-02-14T08:27:54;97382.94;;;10.64;43.08
61324;BME280;47203;48.428;11.974;2024-02-14T08:29:58;97385.63;;;10.70;43.12
61324;BME280;47203;48.428;11.974;2024-02-14T08:32:02;97388.56;;;10.73;42.87
61324;BME280;47203;48.428;11.974;2024-02-14T08:34:07;97389.88;;;10.76;42.90
61324;BME280;47203;48.428;11.974;2024-02-14T08:36:12;97391.75;;;10.80;42.96
61324;BME280;47203;48.428;11.974;2024-02-14T08:38:15;97379.69;;;10.85;42.90
61324;BME280;47203;48.428;11.974;2024-02-14T08:40:19;97375.78;;;10.87;42.81
61324;BME280;47203;48.428;11.974;2024-02-14T08:42:23;97381.88;;;10.93;42.89
61324;BME280;47203;48.428;11.974;2024-02-14T08:44:28;97379.53;;;10.96;42.85
61324;BME280;47203;48.428;11.974;2024-02-14T08:46:31;97375.94;;;11.03;42.77
61324;BME280;47203;48.428;11.974;2024-02-14T08:48:35;97376.50;;;11.10;42.77
61324;BME280;47203;48.428;11.974;2024-02-14T08:50:42;97376.28;;;11.16;42.72
61324;BME280;47203;48.428;11.974;2024-02-14T08:52:48;97371.84;;;11.22;42.88
61324;BME280;47203;48.428;11.974;2024-02-14T08:54:52;97372.16;;;11.26;42.72
61324;BME280;47203;48.428;11.974;2024-02-14T08:56:55;97374.56;;;11.32;42.75
61324;BME280;47203;48.428;11.974;2024-02-14T08:59:01;97380.94;;;11.42;42.77
61324;BME280;47203;48.428;11.974;2024-02-14T09:01:06;97379.19;;;11.52;42.97
61324;BME280;47203;48.428;11.974;2024-02-14T09:03:16;97378.50;;;11.67;42.82
61324;BME280;47203;48.428;11.974;2024-02-14T09:05:21;97377.25;;;11.80;42.56
61324;BME280;47203;48.428;11.974;2024-02-14T09:07:24;97374.94;;;11.89;42.74
61324;BME280;47203;48.428;11.974;2024-02-14T09:09:28;97376.84;;;11.99;42.66
61324;BME280;47203;48.428;11.974;2024-02-14T09:11:30;97374.53;;;12.08;42.67
61324;BME280;47203;48.428;11.974;2024-02-14T09:13:34;97380.59;;;12.13;42.64
61324;BME280;47203;48.428;11.974;2024-02-14T09:15:37;97380.59;;;12.13;42.51
61324;BME280;47203;48.428;11.974;2024-02-14T09:17:42;97389.84;;;12.11;42.56
61324;BME280;47203;48.428;11.974;2024-02-14T09:19:46;97395.13;;;12.11;42.88
61324;BME280;47203;48.428;11.974;2024-02-14T09:21:50;97400.09;;;12.07;42.85
61324;BME280;47203;48.428;11.974;2024-02-14T09:23:54;97396.63;;;12.01;43.08
61324;BME280;47203;48.428;11.974;2024-02-14T09:25:58;97402.72;;;12.02;43.16
61324;BME280;47203;48.428;11.974;2024-02-14T09:28:01;97399.84;;;12.03;43.24
61324;BME280;47203;48.428;11.974;2024-02-14T09:30:07;97404.84;;;12.10;43.34
61324;BME280;47203;48.428;11.974;2024-02-14T09:32:19;97400.44;;;12.21;43.39
61324;BME280;47203;48.428;11.974;2024-02-14T09:34:23;97405.50;;;12.33;43.47
61324;BME280;47203;48.428;11.974;2024-02-14T09:36:27;97402.91;;;12.48;43.67
61324;BME280;47203;48.428;11.974;2024-02-14T09:38:31;97399.78;;;12.62;43.53
61324;BME280;47203;48.428;11.974;2024-02-14T09:40:35;97394.28;;;12.84;43.43
61324;BME280;47203;48.428;11.974;2024-02-14T09:42:43;97397.75;;;13.05;43.40
61324;BME280;47203;48.428;11.974;2024-02-14T09:44:52;97390.06;;;13.24;43.35
61324;BME280;47203;48.428;11.974;2024-02-14T09:47:00;97390.38;;;13.43;43.14
61324;BME280;47203;48.428;11.974;2024-02-14T09:49:06;97386.13;;;13.57;42.80
61324;BME280;47203;48.428;11.974;2024-02-14T09:51:12;97390.59;;;13.62;42.40
61324;BME280;47203;48.428;11.974;2024-02-14T09:53:17;97384.00;;;13.65;42.34
61324;BME280;47203;48.428;11.974;2024-02-14T09:55:24;97386.91;;;13.63;42.20
61324;BME280;47203;48.428;11.974;2024-02-14T09:57:29;97388.78;;;13.63;42.08
61324;BME280;47203;48.428;11.974;2024-02-14T09:59:35;97389.31;;;13.59;41.72
61324;BME280;47203;48.428;11.974;2024-02-14T10:01:39;97401.19;;;13.62;41.85
61324;BME280;47203;48.428;11.974;2024-02-14T10:03:43;97384.03;;;13.59;41.95
61324;BME280;47203;48.428;11.974;2024-02-14T10:05:46;97393.28;;;13.57;41.82
61324;BME280;47203;48.428;11.974;2024-02-14T10:07:51;97386.66;;;13.54;41.61
61324;BME280;47203;48.428;11.974;2024-02-14T10:10:06;97385.34;;;13.52;41.73
61324;BME280;47203;48.428;11.974;2024-02-14T10:12:10;97374.75;;;13.57;41.86
61324;BME280;47203;48.428;11.974;2024-02-14T10:14:14;97383.72;;;13.66;41.68
61324;BME280;47203;48.428;11.974;2024-02-14T10:16:18;97382.94;;;13.76;41.53
61324;BME280;47203;48.428;11.974;2024-02-14T10:18:26;97382.34;;;13.84;41.36
61324;BME280;47203;48.428;11.974;2024-02-14T10:20:30;97387.09;;;13.92;41.31
61324;BME280;47203;48.428;11.974;2024-02-14T10:22:37;97385.25;;;14.03;41.06
61324;BME280;47203;48.428;11.974;2024-02-14T10:24:42;97378.03;;;14.14;41.07
61324;BME280;47203;48.428;11.974;2024-02-14T10:26:45;97382.22;;;14.30;40.94
61324;BME280;47203;48.428;11.974;2024-02-14T10:28:49;97370.72;;;14.51;40.81
61324;BME280;47203;48.428;11.974;2024-02-14T10:30:54;97373.28;;;14.71;40.57
61324;BME280;47203;48.428;11.974;2024-02-14T10:32:59;97370.00;;;14.90;40.50
61324;BME280;47203;48.428;11.974;2024-02-14T10:35:21;97365.66;;;15.04;40.26
61324;BME280;47203;48.428;11.974;2024-02-14T10:37:26;97365.03;;;15.17;40.11
61324;BME280;47203;48.428;11.974;2024-02-14T10:39:35;97371.00;;;15.33;39.87
61324;BME280;47203;48.428;11.974;2024-02-14T10:41:42;97366.06;;;15.51;39.78
61324;BME280;47203;48.428;11.974;2024-02-14T10:43:45;97356.31;;;15.70;39.43
61324;BME280;47203;48.428;11.974;2024-02-14T10:45:49;97348.44;;;15.90;39.54
61324;BME280;47203;48.428;11.974;2024-02-14T10:47:57;97351.53;;;16.21;39.19
61324;BME280;47203;48.428;11.974;2024-02-14T10:50:06;97355.56;;;16.56;38.98
61324;BME280;47203;48.428;11.974;2024-02-14T10:52:12;97353.41;;;16.97;38.59
61324;BME280;47203;48.428;11.974;2024-02-14T10:54:17;97352.47;;;17.39;38.27
61324;BME280;47203;48.428;11.974;2024-02-14T10:56:23;97350.75;;;17.76;38.04